Time;durP1;ratioP1;P1;durP2;ratioP2;P2;SDS_P1;SDS_P2;PMS_P1;PMS_P2;Temp;Humidity;BMP_temperature;BMP_pressure;BME280_temperature;BME280_humidity;BME280_pressure;Samples;Min_cycle;Max_cycle;Signal;HPM_P1;HPM_P2
2022/10/12 00:01:23;;;;;;;16.23;8.73;;;17.80;95.20;;;;;;5114249;28;20023;-85
2022/10/12 00:03:49;;;;;;;18.20;9.45;;;17.70;94.90;;;;;;5114393;28;20114;-85
2022/10/12 00:06:20;;;;;;;13.95;9.43;;;17.50;95.00;;;;;;5114116;28;20153;-85
2022/10/12 00:08:47;;;;;;;15.60;9.40;;;17.40;98.20;;;;;;5114248;28;20485;-85
2022/10/12 00:11:19;;;;;;;13.15;9.45;;;17.40;98.50;;;;;;5113891;28;20015;-85
2022/10/12 00:13:45;;;;;;;14.30;9.30;;;17.50;98.50;;;;;;5113511;28;20023;-85
2022/10/12 00:16:13;;;;;;;13.35;9.57;;;17.50;98.50;;;;;;5113945;28;20042;-84
2022/10/12 00:18:39;;;;;;;19.17;10.23;;;17.60;98.00;;;;;;5113812;28;20552;-85
2022/10/12 00:21:08;;;;;;;15.70;9.90;;;17.70;96.80;;;;;;5113619;28;20034;-85
2022/10/12 00:23:35;;;;;;;14.75;9.88;;;17.80;98.10;;;;;;5114002;28;20024;-85
2022/10/12 00:26:03;;;;;;;18.55;9.48;;;17.90;96.60;;;;;;5113588;28;20085;-85
2022/10/12 00:28:29;;;;;;;17.23;9.60;;;17.90;98.10;;;;;;5113391;28;20093;-85
2022/10/12 00:30:55;;;;;;;13.77;9.23;;;17.90;97.00;;;;;;5113270;28;20024;-85
2022/10/12 00:33:20;;;;;;;12.70;8.75;;;17.60;95.60;;;;;;5113467;28;20047;-84
2022/10/12 00:35:46;;;;;;;17.65;9.38;;;17.40;96.50;;;;;;5113208;28;20024;-85
2022/10/12 00:38:12;;;;;;;16.35;9.25;;;17.50;97.40;;;;;;5113959;28;20015;-85
2022/10/12 00:40:37;;;;;;;12.38;8.50;;;17.50;96.20;;;;;;5113319;28;20024;-84
2022/10/12 00:43:03;;;;;;;15.15;8.80;;;17.50;97.60;;;;;;5112987;28;20086;-85
2022/10/12 00:45:30;;;;;;;15.77;9.05;;;17.40;98.50;;;;;;5113383;28;20499;-85
2022/10/12 00:47:58;;;;;;;15.02;9.32;;;17.30;99.90;;;;;;5113025;28;20031;-84
2022/10/12 00:50:24;;;;;;;16.90;9.20;;;17.40;99.90;;;;;;5112996;28;20024;-85
2022/10/12 00:53:08;;;;;;;16.33;8.65;;;17.30;98.30;;;;;;5113598;28;20106;-85
2022/10/12 00:55:39;;;;;;;13.23;8.95;;;17.50;99.90;;;;;;5113333;28;20475;-85
2022/10/12 00:58:07;;;;;;;12.45;8.45;;;17.40;99.90;;;;;;5113169;28;20137;-85
2022/10/12 01:00:33;;;;;;;12.88;9.65;;;17.40;99.60;;;;;;5112662;28;20035;-85
2022/10/12 01:02:59;;;;;;;13.30;9.70;;;17.50;99.50;;;;;;5119964;27;20117;-85
2022/10/12 01:05:25;;;;;;;15.93;9.98;;;17.60;97.60;;;;;;5133640;27;20101;-85
2022/10/12 01:07:51;;;;;;;17.13;9.85;;;17.60;96.30;;;;;;5133285;27;20075;-85
2022/10/12 01:10:17;;;;;;;17.88;9.32;;;17.70;99.90;;;;;;5133031;27;20023;-85
2022/10/12 01:12:45;;;;;;;18.30;10.27;;;17.60;98.40;;;;;;5133596;27;20027;-85
2022/10/12 01:15:12;;;;;;;17.77;10.30;;;17.70;99.90;;;;;;5133263;27;20015;-85
2022/10/12 01:17:55;;;;;;;16.10;11.18;;;17.70;99.90;;;;;;5133317;27;20706;-84
2022/10/12 01:20:27;;;;;;;16.50;11.13;;;17.70;99.50;;;;;;5133652;27;20031;-85
2022/10/12 01:23:01;;;;;;;18.25;11.48;;;17.60;99.90;;;;;;5133308;27;20023;-85
2022/10/12 01:26:11;;;;;;;13.73;10.50;;;17.70;97.30;;;;;;5133305;27;20058;-85
2022/10/12 01:28:54;;;;;;;20.55;13.68;;;17.70;99.90;;;;;;5030285;28;20072;-85
2022/10/12 01:31:35;;;;;;;21.48;13.93;;;17.80;99.90;;;;;;5021520;28;20025;-85
2022/10/12 01:34:29;;;;;;;20.25;15.35;;;17.70;99.90;;;;;;5010208;28;20072;-84
2022/10/12 01:37:10;;;;;;;15.95;12.23;;;17.80;99.90;;;;;;5010299;28;20061;-85
2022/10/12 01:39:48;;;;;;;16.35;11.27;;;17.70;99.90;;;;;;5010294;28;20048;-85
2022/10/12 01:42:20;;;;;;;19.85;11.00;;;17.70;99.90;;;;;;5010203;28;20494;-85
2022/10/12 01:44:46;;;;;;;18.05;11.75;;;17.60;99.90;;;;;;5010084;28;20479;-85
2022/10/12 01:47:13;;;;;;;22.75;12.05;;;17.60;97.40;;;;;;5009767;28;20045;-85
2022/10/12 01:49:38;;;;;;;18.13;11.50;;;17.60;99.90;;;;;;5010247;28;20025;-85
2022/10/12 01:52:22;;;;;;;18.45;10.85;;;17.60;99.20;;;;;;5010362;28;20088;-85
2022/10/12 01:54:50;;;;;;;23.13;12.45;;;17.70;99.90;;;;;;5008801;28;20541;-85
2022/10/12 01:57:34;;;;;;;17.65;12.00;;;17.80;99.90;;;;;;5009409;28;20046;-85
2022/10/12 02:00:09;;;;;;;21.88;14.88;;;17.80;99.90;;;;;;5009970;28;20109;-85
2022/10/12 02:02:37;;;;;;;24.67;16.58;;;17.80;99.90;;;;;;5010113;28;20022;-85
2022/10/12 02:05:17;;;;;;;23.60;16.75;;;17.80;99.90;;;;;;5058068;28;20107;-85
2022/10/12 02:08:05;;;;;;;19.55;15.20;;;17.70;99.90;;;;;;5112003;28;20036;-85
2022/10/12 02:10:42;;;;;;;22.02;15.38;;;17.80;99.90;;;;;;5112218;28;20120;-85
2022/10/12 02:13:11;;;;;;;22.00;14.73;;;17.80;99.90;;;;;;5115883;28;20023;-85
2022/10/12 02:15:39;;;;;;;28.65;17.67;;;17.60;99.90;;;;;;5097967;28;20034;-85
2022/10/12 02:18:06;;;;;;;23.95;17.77;;;17.60;99.90;;;;;;5116074;28;20039;-85
2022/10/12 02:20:33;;;;;;;22.83;16.50;;;17.50;99.90;;;;;;5116104;28;20085;-85
2022/10/12 02:23:00;;;;;;;22.67;16.65;;;17.60;99.90;;;;;;5116090;28;20027;-85
2022/10/12 02:25:27;;;;;;;23.80;15.48;;;17.50;99.90;;;;;;5116207;28;20038;-85
2022/10/12 02:28:21;;;;;;;21.48;15.65;;;17.50;99.90;;;;;;5115712;28;20038;-85
2022/10/12 02:31:12;;;;;;;23.92;16.95;;;17.50;99.90;;;;;;5112561;28;20031;-84
2022/10/12 02:33:45;;;;;;;24.58;15.65;;;17.60;99.90;;;;;;5115703;28;20050;-85
2022/10/12 02:36:35;;;;;;;25.27;17.25;;;17.60;99.90;;;;;;5115886;28;20437;-85
2022/10/12 02:39:09;;;;;;;22.10;18.65;;;17.60;99.90;;;;;;5115308;28;20434;-85
2022/10/12 02:41:41;;;;;;;26.23;17.85;;;17.60;99.90;;;;;;5115712;28;20568;-85
2022/10/12 02:44:13;;;;;;;22.85;16.30;;;17.60;99.90;;;;;;5115856;28;20513;-85
2022/10/12 02:46:41;;;;;;;25.90;17.45;;;17.50;99.90;;;;;;5097637;28;20518;-85
2022/10/12 02:49:07;;;;;;;28.15;18.02;;;17.40;99.90;;;;;;5115855;28;20103;-85
2022/10/12 02:51:36;;;;;;;23.00;17.60;;;17.40;99.90;;;;;;5115413;28;20112;-85
2022/10/12 02:54:02;;;;;;;27.50;20.52;;;17.40;99.90;;;;;;5115634;28;20024;-85
2022/10/12 02:56:28;;;;;;;27.42;20.95;;;17.30;99.90;;;;;;5115509;28;20020;-85
2022/10/12 02:58:53;;;;;;;30.02;20.58;;;17.30;99.90;;;;;;5115373;28;20080;-85
2022/10/12 03:01:19;;;;;;;29.88;21.05;;;17.50;99.90;;;;;;5115480;28;20027;-85
2022/10/12 03:03:45;;;;;;;30.98;21.67;;;17.60;99.90;;;;;;5115138;28;20034;-85
2022/10/12 03:06:11;;;;;;;31.80;20.58;;;17.50;99.90;;;;;;5114639;28;20450;-85
2022/10/12 03:08:37;;;;;;;30.00;18.10;;;17.60;99.90;;;;;;5115024;28;20028;-85
2022/10/12 03:11:04;;;;;;;21.90;13.80;;;17.40;99.90;;;;;;5114996;28;20035;-86
2022/10/12 03:13:30;;;;;;;21.75;14.10;;;17.30;99.90;;;;;;5115191;28;20023;-85
2022/10/12 03:16:07;;;;;;;19.73;14.82;;;17.20;99.90;;;;;;5114790;28;20388;-84
2022/10/12 03:18:33;;;;;;;24.00;15.20;;;17.20;99.90;;;;;;5115524;28;20024;-85
2022/10/12 03:20:59;;;;;;;25.80;14.80;;;16.90;99.90;;;;;;5114566;28;20023;-84
2022/10/12 03:23:25;;;;;;;21.60;14.57;;;16.80;99.90;;;;;;5114845;28;20499;-85
2022/10/12 03:25:51;;;;;;;20.95;14.82;;;16.70;99.90;;;;;;5114879;28;20070;-85
2022/10/12 03:28:17;;;;;;;23.08;15.05;;;16.90;99.90;;;;;;5114609;28;20444;-85
2022/10/12 03:30:44;;;;;;;24.50;15.10;;;16.90;99.90;;;;;;5114717;28;20020;-85
2022/10/12 03:33:09;;;;;;;28.00;16.10;;;17.00;99.90;;;;;;5114809;28;20023;-85
2022/10/12 03:35:35;;;;;;;33.20;15.48;;;16.90;99.90;;;;;;5114023;28;20698;-85
2022/10/12 03:38:01;;;;;;;30.17;16.58;;;16.80;99.90;;;;;;5114763;28;20112;-85
2022/10/12 03:40:26;;;;;;;32.67;17.65;;;16.60;99.90;;;;;;5114421;28;20111;-85
2022/10/12 03:42:52;;;;;;;30.15;17.80;;;16.70;99.90;;;;;;5114776;28;20471;-85
2022/10/12 03:45:17;;;;;;;31.08;18.35;;;16.70;99.90;;;;;;5114134;28;20027;-84
2022/10/12 03:47:43;;;;;;;31.98;17.17;;;16.50;99.90;;;;;;5114238;28;20088;-85
2022/10/12 03:50:09;;;;;;;31.70;18.70;;;16.60;99.90;;;;;;5114149;28;20016;-86
2022/10/12 03:52:34;;;;;;;29.65;18.75;;;16.70;99.90;;;;;;5114227;28;20111;-86
2022/10/12 03:55:00;;;;;;;37.53;18.80;;;16.70;99.90;;;;;;5114554;28;20073;-86
2022/10/12 03:57:26;;;;;;;30.42;19.60;;;16.70;99.90;;;;;;5114297;28;20054;-86
2022/10/12 03:59:51;;;;;;;41.63;20.50;;;17.00;99.90;;;;;;5114153;28;20547;-86
2022/10/12 04:02:17;;;;;;;33.42;19.40;;;16.90;99.90;;;;;;5115451;27;20387;-83
2022/10/12 04:04:42;;;;;;;36.58;20.15;;;16.80;99.90;;;;;;5134178;27;20027;-87
2022/10/12 04:07:08;;;;;;;34.65;19.35;;;16.90;99.90;;;;;;5134741;27;20488;-87
2022/10/12 04:09:33;;;;;;;31.13;20.48;;;16.90;99.90;;;;;;5134954;27;20027;-86
2022/10/12 04:11:59;;;;;;;32.38;18.67;;;17.00;99.90;;;;;;5134498;27;20027;-84
2022/10/12 04:14:24;;;;;;;34.22;19.38;;;17.00;99.90;;;;;;5134710;27;20055;-86
2022/10/12 04:16:53;;;;;;;36.28;19.75;;;16.90;99.90;;;;;;5134446;27;20391;-86
2022/10/12 04:19:19;;;;;;;32.47;20.13;;;16.70;99.90;;;;;;5133915;27;20473;-85
2022/10/12 04:21:44;;;;;;;31.85;19.75;;;16.70;99.90;;;;;;5134204;27;20059;-86
2022/10/12 04:24:10;;;;;;;28.80;18.88;;;16.60;99.90;;;;;;5116095;27;20023;-85
2022/10/12 04:26:36;;;;;;;29.85;20.23;;;16.80;99.90;;;;;;5134459;27;20086;-85
2022/10/12 04:29:02;;;;;;;37.45;19.55;;;16.70;99.90;;;;;;5133912;27;20015;-85
2022/10/12 04:31:28;;;;;;;29.23;18.75;;;16.80;99.90;;;;;;5123749;27;20484;-84
2022/10/12 04:33:56;;;;;;;29.33;18.65;;;16.90;99.90;;;;;;5094247;28;20040;-85
2022/10/12 04:36:23;;;;;;;33.63;20.55;;;17.00;99.90;;;;;;5113614;28;20377;-85
2022/10/12 04:38:49;;;;;;;32.00;20.27;;;16.90;99.90;;;;;;5095071;28;20027;-85
2022/10/12 04:41:14;;;;;;;34.17;21.27;;;16.90;99.90;;;;;;5113355;28;20464;-85
2022/10/12 04:43:40;;;;;;;35.10;21.38;;;16.80;99.90;;;;;;5113638;28;20055;-85
2022/10/12 04:46:05;;;;;;;33.20;20.50;;;16.80;99.90;;;;;;5113193;28;20023;-84
2022/10/12 04:48:31;;;;;;;34.42;21.42;;;16.80;99.90;;;;;;5112840;28;20168;-85
2022/10/12 04:50:57;;;;;;;36.28;21.05;;;16.90;99.90;;;;;;5113129;28;20110;-85
2022/10/12 04:53:22;;;;;;;36.35;21.77;;;16.80;99.90;;;;;;5113142;28;20036;-85
2022/10/12 04:55:48;;;;;;;29.67;19.83;;;16.80;99.90;;;;;;5112870;28;20015;-85
2022/10/12 04:58:14;;;;;;;32.97;20.02;;;16.60;99.90;;;;;;5113029;28;20019;-85
2022/10/12 05:00:40;;;;;;;30.75;20.27;;;17.00;99.90;;;;;;5113456;28;20030;-85
2022/10/12 05:03:06;;;;;;;33.22;20.67;;;16.60;99.90;;;;;;5094308;28;20153;-85
2022/10/12 05:05:33;;;;;;;35.17;20.30;;;16.70;99.90;;;;;;5112902;28;20027;-85
2022/10/12 05:07:59;;;;;;;32.72;21.33;;;16.80;99.90;;;;;;5112657;28;20036;-85
2022/10/12 05:10:24;;;;;;;33.33;21.33;;;16.80;99.90;;;;;;5113181;28;20026;-85
2022/10/12 05:12:50;;;;;;;34.55;22.75;;;16.80;99.90;;;;;;5112848;28;20028;-85
2022/10/12 05:15:16;;;;;;;37.63;23.02;;;16.80;99.90;;;;;;5112765;28;20032;-85
2022/10/12 05:17:41;;;;;;;43.30;27.85;;;16.80;99.90;;;;;;5112642;28;20386;-85
2022/10/12 05:20:08;;;;;;;33.85;22.75;;;16.90;99.90;;;;;;5112767;28;20024;-85
2022/10/12 05:22:34;;;;;;;32.85;23.63;;;16.80;99.90;;;;;;5112706;28;20553;-85
2022/10/12 05:24:59;;;;;;;40.53;24.10;;;16.90;99.90;;;;;;5112322;28;20028;-85
2022/10/12 05:27:25;;;;;;;39.80;24.38;;;16.80;99.90;;;;;;5112559;28;20035;-85
2022/10/12 05:29:51;;;;;;;36.67;23.23;;;17.00;99.90;;;;;;5112538;28;20024;-85
2022/10/12 05:32:16;;;;;;;37.17;23.30;;;17.00;99.90;;;;;;5112106;28;20027;-85
2022/10/12 05:34:42;;;;;;;36.88;23.95;;;17.00;99.90;;;;;;5112418;28;20123;-85
2022/10/12 05:37:08;;;;;;;31.83;22.50;;;17.00;99.90;;;;;;5112815;28;20044;-85
2022/10/12 05:39:35;;;;;;;34.38;23.83;;;16.90;99.90;;;;;;5112666;28;20059;-85
2022/10/12 05:42:00;;;;;;;35.47;22.60;;;17.10;99.90;;;;;;5112337;28;20024;-85
2022/10/12 05:44:26;;;;;;;39.72;24.33;;;16.80;99.90;;;;;;5112474;28;20096;-85
2022/10/12 05:46:51;;;;;;;34.13;23.58;;;16.80;99.90;;;;;;5115131;28;20027;-85
2022/10/12 05:49:17;;;;;;;32.25;22.33;;;16.80;99.90;;;;;;5117070;28;20564;-85
2022/10/12 05:51:43;;;;;;;32.22;22.73;;;16.70;99.90;;;;;;5117119;28;20030;-85
2022/10/12 05:54:08;;;;;;;33.97;22.73;;;16.70;99.90;;;;;;5116838;28;20032;-85
2022/10/12 05:56:34;;;;;;;34.78;22.48;;;16.70;99.90;;;;;;5116694;28;20016;-85
2022/10/12 05:59:00;;;;;;;35.80;22.80;;;16.70;99.90;;;;;;5116782;28;20475;-85
2022/10/12 06:01:25;;;;;;;33.65;23.17;;;16.80;99.90;;;;;;5116209;28;20037;-85
2022/10/12 06:03:53;;;;;;;37.42;23.48;;;16.80;99.90;;;;;;5116820;28;20037;-85
2022/10/12 06:06:19;;;;;;;37.30;24.60;;;16.80;99.90;;;;;;5116099;28;20023;-86
2022/10/12 06:08:45;;;;;;;32.75;22.40;;;16.80;99.90;;;;;;5116137;28;20027;-85
2022/10/12 06:11:11;;;;;;;33.58;22.17;;;16.80;99.90;;;;;;5116376;28;20026;-85
2022/10/12 06:13:37;;;;;;;33.65;21.90;;;17.00;99.90;;;;;;5116072;28;20488;-84
2022/10/12 06:16:03;;;;;;;28.30;20.25;;;17.00;99.90;;;;;;5115824;28;20099;-85
2022/10/12 06:18:28;;;;;;;35.10;22.25;;;17.20;99.90;;;;;;5115900;28;20106;-85
2022/10/12 06:20:54;;;;;;;31.10;21.27;;;17.30;99.90;;;;;;5116068;28;20079;-90
2022/10/12 06:23:20;;;;;;;35.85;24.35;;;17.20;99.90;;;;;;5099494;28;20020;-89
2022/10/12 06:25:47;;;;;;;31.08;22.70;;;17.30;99.90;;;;;;5098065;28;20081;-89
2022/10/12 06:28:15;;;;;;;30.92;21.42;;;17.30;99.90;;;;;;5098039;28;20411;-88
2022/10/12 06:30:41;;;;;;;28.15;20.75;;;17.40;99.90;;;;;;5097127;28;20023;-88
2022/10/12 06:33:06;;;;;;;29.15;21.83;;;17.40;99.90;;;;;;5115921;28;20080;-88
2022/10/12 06:35:32;;;;;;;27.42;21.33;;;17.40;99.90;;;;;;5115831;28;20055;-88
2022/10/12 06:37:58;;;;;;;29.15;22.52;;;17.40;99.90;;;;;;5116085;28;20032;-88
2022/10/12 06:40:24;;;;;;;28.58;21.88;;;17.40;99.90;;;;;;5115623;28;20422;-89
2022/10/12 06:42:50;;;;;;;32.90;21.88;;;17.40;99.90;;;;;;5115639;28;20046;-88
2022/10/12 06:45:16;;;;;;;30.58;22.58;;;17.60;99.90;;;;;;5115357;28;20468;-88
2022/10/12 06:47:42;;;;;;;29.08;22.23;;;17.40;99.90;;;;;;5116110;28;20110;-89
2022/10/12 06:50:08;;;;;;;31.27;21.52;;;17.50;99.90;;;;;;5101317;28;20058;-88
2022/10/12 06:52:34;;;;;;;32.78;22.50;;;17.60;99.90;;;;;;5101706;28;20043;-88
2022/10/12 06:55:00;;;;;;;29.60;21.58;;;17.60;99.90;;;;;;5120248;28;20058;-89
2022/10/12 06:57:26;;;;;;;28.67;22.38;;;17.80;99.90;;;;;;5119303;28;20032;-88
2022/10/12 06:59:52;;;;;;;31.58;21.90;;;18.00;99.90;;;;;;5115678;28;20032;-88
2022/10/12 07:02:17;;;;;;;30.08;22.67;;;18.10;99.90;;;;;;5115536;28;20034;-88
2022/10/12 07:04:43;;;;;;;31.65;20.80;;;18.10;99.90;;;;;;5115652;28;20035;-89
2022/10/12 07:07:08;;;;;;;32.10;21.85;;;18.10;99.90;;;;;;5114893;28;20063;-89
2022/10/12 07:09:35;;;;;;;34.78;22.25;;;18.10;99.90;;;;;;5115141;28;20031;-89
2022/10/12 07:12:00;;;;;;;30.27;20.83;;;18.10;99.90;;;;;;5096981;28;20026;-89
2022/10/12 07:14:26;;;;;;;32.95;22.27;;;18.10;99.90;;;;;;5114742;28;20032;-89
2022/10/12 07:16:52;;;;;;;28.92;21.17;;;18.00;99.90;;;;;;5115153;28;20503;-88
2022/10/12 07:19:17;;;;;;;31.08;22.23;;;18.00;99.90;;;;;;5115284;28;20024;-88
2022/10/12 07:21:43;;;;;;;27.67;21.40;;;18.00;99.90;;;;;;5114985;28;20527;-89
2022/10/12 07:24:12;;;;;;;29.20;21.48;;;18.00;99.90;;;;;;5115392;28;20028;-88
2022/10/12 07:26:37;;;;;;;34.95;21.40;;;18.10;99.90;;;;;;5096556;28;20123;-88
2022/10/12 07:29:03;;;;;;;28.83;22.83;;;18.10;99.90;;;;;;5096197;28;20462;-88
2022/10/12 07:31:29;;;;;;;31.17;22.98;;;18.10;99.90;;;;;;5114731;28;20028;-88
2022/10/12 07:33:54;;;;;;;30.95;22.17;;;17.80;99.90;;;;;;5114347;28;20171;-89
2022/10/12 07:36:20;;;;;;;36.30;23.50;;;17.80;99.90;;;;;;5114916;28;20023;-88
2022/10/12 07:38:47;;;;;;;35.95;21.90;;;17.70;99.90;;;;;;5096413;28;20035;-89
2022/10/12 07:41:13;;;;;;;32.42;21.88;;;17.70;99.90;;;;;;5114543;28;20077;-88
2022/10/12 07:43:39;;;;;;;32.30;22.30;;;17.60;99.90;;;;;;5114106;28;20391;-88
2022/10/12 07:46:06;;;;;;;40.38;23.90;;;17.60;99.90;;;;;;5114857;28;20380;-88
2022/10/12 07:48:32;;;;;;;41.72;22.83;;;17.30;99.90;;;;;;5096110;28;20463;-88
2022/10/12 07:51:05;;;;;;;39.15;23.70;;;17.30;99.90;;;;;;5114268;28;20076;-89
2022/10/12 07:53:33;;;;;;;40.22;24.35;;;17.20;99.90;;;;;;5096071;28;20023;-88
2022/10/12 07:56:06;;;;;;;36.88;25.48;;;17.20;99.90;;;;;;5114212;28;20030;-88
2022/10/12 07:58:32;;;;;;;39.85;25.33;;;17.10;99.90;;;;;;5115397;28;20134;-88
2022/10/12 08:01:05;;;;;;;44.65;25.33;;;17.20;99.90;;;;;;5114254;28;20055;-88
2022/10/12 08:03:31;;;;;;;42.92;26.98;;;17.30;99.90;;;;;;5114024;28;20027;-88
2022/10/12 08:05:56;;;;;;;42.28;24.63;;;17.50;99.90;;;;;;5113972;28;20382;-88
2022/10/12 08:08:22;;;;;;;40.47;25.35;;;17.50;99.90;;;;;;5113786;28;20047;-88
2022/10/12 08:10:48;;;;;;;45.40;25.83;;;17.50;99.90;;;;;;5113446;28;20019;-88
2022/10/12 08:13:13;;;;;;;38.97;26.33;;;17.50;99.90;;;;;;5116459;28;20134;-88
2022/10/12 08:15:39;;;;;;;39.95;26.33;;;17.40;99.90;;;;;;5117140;28;20063;-88
2022/10/12 08:18:05;;;;;;;37.60;26.13;;;17.30;99.90;;;;;;5117172;28;20472;-88
2022/10/12 08:20:30;;;;;;;40.47;26.85;;;17.30;99.90;;;;;;5115656;28;20027;-88
2022/10/12 08:22:56;;;;;;;48.70;27.98;;;17.30;99.90;;;;;;5095620;28;20035;-88
2022/10/12 08:25:21;;;;;;;45.70;28.48;;;17.40;99.90;;;;;;5113212;28;20024;-88
2022/10/12 08:27:47;;;;;;;54.22;29.02;;;17.40;99.90;;;;;;5113511;28;20040;-88
2022/10/12 08:30:13;;;;;;;49.80;29.80;;;17.30;99.90;;;;;;5095409;28;20012;-88
2022/10/12 08:32:38;;;;;;;44.60;28.58;;;17.30;99.90;;;;;;5113337;28;20106;-88
2022/10/12 08:35:04;;;;;;;45.05;27.95;;;17.20;99.90;;;;;;5095034;28;20047;-89
2022/10/12 08:37:32;;;;;;;53.30;29.30;;;17.20;99.90;;;;;;5114112;28;20055;-88
2022/10/12 08:39:57;;;;;;;51.70;29.27;;;17.20;99.90;;;;;;5113144;28;20020;-88
2022/10/12 08:42:32;;;;;;;50.40;29.05;;;17.30;99.90;;;;;;5113543;28;20028;-88
2022/10/12 08:45:31;;;;;;;48.30;27.75;;;17.30;99.90;;;;;;5113519;28;20395;-89
2022/10/12 08:48:20;;;;;;;53.95;29.35;;;17.40;99.90;;;;;;5113013;28;20572;-88
2022/10/12 08:50:52;;;;;;;45.28;28.60;;;17.50;99.90;;;;;;5113419;28;20044;-88
2022/10/12 08:53:34;;;;;;;45.10;28.63;;;17.50;99.90;;;;;;5113708;28;20019;-88
2022/10/12 08:56:00;;;;;;;42.78;27.70;;;17.50;99.90;;;;;;5112808;28;20035;-87
2022/10/12 08:58:32;;;;;;;49.08;29.55;;;17.50;99.90;;;;;;5113026;28;20483;-88
2022/10/12 09:01:29;;;;;;;49.75;28.00;;;17.50;99.90;;;;;;5094723;28;20454;-88
2022/10/12 09:04:27;;;;;;;37.65;26.55;;;17.60;99.90;;;;;;5112998;28;20030;-88
2022/10/12 09:07:13;;;;;;;48.28;28.02;;;17.60;99.90;;;;;;5112840;28;20032;-88
2022/10/12 09:09:45;;;;;;;46.80;29.83;;;17.60;99.90;;;;;;5112484;28;20487;-88
2022/10/12 09:12:20;;;;;;;47.20;28.95;;;17.50;99.90;;;;;;5113158;28;20031;-88
2022/10/12 09:14:49;;;;;;;46.65;30.20;;;17.30;99.90;;;;;;5113317;28;20483;-89
2022/10/12 09:17:32;;;;;;;47.85;31.13;;;17.40;99.90;;;;;;5094374;28;20485;-88
2022/10/12 09:20:18;;;;;;;46.30;29.20;;;17.10;99.90;;;;;;5112787;28;20563;-88
2022/10/12 09:22:51;;;;;;;45.88;30.75;;;17.10;99.90;;;;;;5112661;28;20089;-88
2022/10/12 09:25:22;;;;;;;46.05;29.70;;;17.00;99.90;;;;;;5112520;28;20508;-88
2022/10/12 09:27:47;;;;;;;46.25;30.38;;;17.00;99.90;;;;;;5094309;28;20108;-88
2022/10/12 09:30:16;;;;;;;55.97;29.83;;;17.00;99.90;;;;;;5112884;28;20024;-88
2022/10/12 09:32:53;;;;;;;44.67;30.20;;;17.20;99.90;;;;;;5094321;28;20019;-88
2022/10/12 09:35:19;;;;;;;50.05;31.50;;;17.30;99.90;;;;;;5112529;28;20092;-88
2022/10/12 09:37:49;;;;;;;46.92;30.77;;;17.10;99.90;;;;;;5112296;28;20027;-88
2022/10/12 09:40:29;;;;;;;42.90;30.27;;;17.10;99.90;;;;;;5094518;28;20024;-89
2022/10/12 09:42:59;;;;;;;43.83;29.35;;;17.10;99.90;;;;;;5112436;28;20038;-87
2022/10/12 09:45:25;;;;;;;45.83;29.08;;;17.20;99.90;;;;;;5114047;28;20395;-88
2022/10/12 09:48:11;;;;;;;43.95;30.10;;;17.20;99.90;;;;;;5116578;28;20038;-88
2022/10/12 09:50:59;;;;;;;43.65;29.35;;;17.20;99.90;;;;;;5117062;28;20028;-89
2022/10/12 09:53:45;;;;;;;38.00;27.98;;;17.30;99.90;;;;;;5115895;28;20285;-88
2022/10/12 09:56:29;;;;;;;42.30;28.98;;;17.40;99.90;;;;;;5113087;28;20475;-88
2022/10/12 09:59:28;;;;;;;43.50;30.77;;;17.60;99.90;;;;;;5112464;28;20423;-88
2022/10/12 10:01:57;;;;;;;39.47;28.23;;;17.60;99.90;;;;;;5049694;28;20168;-88
2022/10/12 10:04:24;;;;;;;40.13;28.30;;;17.70;99.90;;;;;;5033195;28;20416;-89
2022/10/12 10:06:50;;;;;;;40.08;28.58;;;17.70;99.90;;;;;;5049093;28;20548;-88
2022/10/12 10:09:32;;;;;;;40.65;28.42;;;17.90;99.90;;;;;;5032956;28;20025;-88
2022/10/12 10:12:13;;;;;;;36.67;25.92;;;17.90;99.90;;;;;;5049503;28;20120;-88
2022/10/12 10:14:42;;;;;;;36.67;25.50;;;17.70;99.90;;;;;;5049394;28;20037;-88
2022/10/12 10:17:12;;;;;;;34.88;24.70;;;17.60;99.90;;;;;;5032834;28;20036;-88
2022/10/12 10:19:38;;;;;;;31.27;22.98;;;18.00;99.90;;;;;;5049483;28;20139;-88
2022/10/12 10:22:05;;;;;;;38.50;23.73;;;17.90;99.90;;;;;;5049207;28;20123;-88
2022/10/12 10:24:32;;;;;;;30.88;22.70;;;17.90;99.90;;;;;;5032896;28;20056;-88
2022/10/12 10:27:00;;;;;;;31.40;22.08;;;18.00;99.90;;;;;;5032463;28;20424;-88
2022/10/12 10:29:34;;;;;;;31.27;21.30;;;18.30;99.90;;;;;;5050045;28;20032;-88
2022/10/12 10:32:27;;;;;;;26.35;21.13;;;18.30;99.90;;;;;;5048939;28;20148;-88
2022/10/12 10:35:18;;;;;;;26.83;20.20;;;18.40;99.90;;;;;;5069780;28;20049;-89
2022/10/12 10:38:14;;;;;;;23.23;18.75;;;18.80;99.90;;;;;;5056721;28;20039;-88
2022/10/12 10:40:40;;;;;;;26.17;19.17;;;18.60;99.90;;;;;;5094355;28;20028;-88
2022/10/12 10:43:18;;;;;;;25.13;19.63;;;18.60;99.90;;;;;;5077022;28;20365;-88
2022/10/12 10:45:50;;;;;;;23.80;18.50;;;18.70;99.90;;;;;;5077106;28;20138;-88
2022/10/12 10:48:26;;;;;;;25.38;18.85;;;19.00;99.90;;;;;;5095226;28;20434;-88
2022/10/12 10:50:59;;;;;;;25.65;19.45;;;19.20;99.90;;;;;;5096014;28;20475;-84
2022/10/12 10:53:29;;;;;;;27.88;18.73;;;19.50;99.90;;;;;;5095604;28;20035;-84
2022/10/12 10:55:58;;;;;;;27.23;19.65;;;19.60;99.90;;;;;;5095000;28;20493;-84
2022/10/12 10:58:36;;;;;;;28.15;19.48;;;19.90;99.90;;;;;;5095090;28;20024;-84
2022/10/12 11:01:13;;;;;;;26.52;18.25;;;19.90;99.90;;;;;;5095292;28;20028;-84
2022/10/12 11:03:42;;;;;;;29.13;18.25;;;20.20;99.90;;;;;;5107845;28;20032;-84
2022/10/12 11:06:15;;;;;;;27.23;19.30;;;20.20;99.90;;;;;;5114784;28;20027;-84
2022/10/12 11:08:43;;;;;;;25.33;18.13;;;21.00;99.90;;;;;;5115380;28;20419;-84
2022/10/12 11:11:17;;;;;;;26.27;18.17;;;22.10;99.90;;;;;;5115375;28;20019;-84
2022/10/12 11:14:01;;;;;;;22.95;17.27;;;22.20;99.90;;;;;;5115148;28;20031;-84
2022/10/12 11:16:35;;;;;;;23.05;17.35;;;21.90;99.90;;;;;;5115723;28;20038;-84
2022/10/12 11:19:26;;;;;;;20.67;16.42;;;22.20;99.90;;;;;;5115264;28;20099;-83
2022/10/12 11:22:02;;;;;;;21.60;15.80;;;27.50;99.90;;;;;;5115248;28;20030;-84
2022/10/12 11:24:48;;;;;;;21.15;14.50;;;31.30;96.10;;;;;;5114775;28;20104;-84
2022/10/12 11:27:24;;;;;;;22.38;15.38;;;32.30;92.90;;;;;;5114710;28;20202;-84
2022/10/12 11:29:58;;;;;;;19.05;14.07;;;33.30;86.90;;;;;;5096459;28;20120;-84
2022/10/12 11:32:38;;;;;;;17.77;14.13;;;33.70;83.50;;;;;;5115633;28;20031;-84
2022/10/12 11:35:06;;;;;;;16.85;14.75;;;33.30;78.20;;;;;;5114503;28;20040;-84
2022/10/12 11:37:38;;;;;;;16.35;14.43;;;34.60;78.30;;;;;;5114873;28;20053;-84
2022/10/12 11:40:08;;;;;;;21.45;15.20;;;34.30;74.10;;;;;;5114195;28;20106;-84
2022/10/12 11:42:40;;;;;;;19.38;15.00;;;30.20;70.90;;;;;;5115058;28;20565;-84
2022/10/12 11:45:21;;;;;;;19.75;13.75;;;27.50;73.60;;;;;;5096684;28;20599;-84
2022/10/12 11:47:54;;;;;;;16.17;13.82;;;30.80;77.50;;;;;;5114837;28;20406;-84
2022/10/12 11:50:31;;;;;;;15.90;14.18;;;31.00;72.90;;;;;;5114321;28;20015;-84
2022/10/12 11:53:00;;;;;;;17.35;14.18;;;29.30;70.10;;;;;;5114553;28;20074;-84
2022/10/12 11:55:35;;;;;;;17.15;13.68;;;27.40;71.00;;;;;;5114120;28;20044;-84
2022/10/12 11:58:09;;;;;;;16.48;14.07;;;26.20;74.90;;;;;;5114122;28;20104;-84
2022/10/12 12:00:47;;;;;;;17.52;13.63;;;26.00;75.70;;;;;;5114048;28;20019;-84
2022/10/12 12:03:21;;;;;;;18.83;14.20;;;25.60;75.30;;;;;;5114714;28;20019;-83
2022/10/12 12:05:47;;;;;;;18.70;13.60;;;26.30;76.90;;;;;;5114078;28;20020;-83
2022/10/12 12:08:37;;;;;;;15.43;13.55;;;27.60;77.00;;;;;;5113774;28;20104;-84
2022/10/12 12:11:18;;;;;;;18.98;15.00;;;32.90;73.30;;;;;;5113799;28;20023;-83
2022/10/12 12:13:43;;;;;;;16.38;14.68;;;34.00;68.10;;;;;;5113749;28;20513;-83
2022/10/12 12:16:12;;;;;;;16.15;12.80;;;35.20;65.10;;;;;;5113865;28;20028;-83
2022/10/12 12:19:05;;;;;;;14.25;12.25;;;35.60;63.70;;;;;;5113990;28;20078;-84
2022/10/12 12:22:09;;;;;;;14.40;12.52;;;36.10;61.10;;;;;;5114155;28;20019;-83
2022/10/12 12:24:35;;;;;;;16.65;13.55;;;35.80;59.10;;;;;;5113727;28;20032;-84
2022/10/12 12:27:01;;;;;;;14.15;11.40;;;35.90;57.80;;;;;;5113545;28;20043;-84
2022/10/12 12:29:28;;;;;;;12.90;11.60;;;34.30;55.60;;;;;;5113584;28;20024;-84
2022/10/12 12:31:58;;;;;;;13.95;11.70;;;34.20;57.40;;;;;;5113245;28;20028;-83
2022/10/12 12:34:25;;;;;;;14.57;10.90;;;34.40;56.50;;;;;;5113203;28;20054;-83
2022/10/12 12:36:52;;;;;;;12.63;10.85;;;35.40;55.80;;;;;;5113472;28;20015;-83
2022/10/12 12:39:25;;;;;;;12.88;10.43;;;34.20;54.50;;;;;;5113751;28;20024;-84
2022/10/12 12:41:56;;;;;;;14.82;10.48;;;35.60;54.00;;;;;;5113291;28;20131;-84
2022/10/12 12:44:36;;;;;;;11.07;9.32;;;35.20;53.20;;;;;;5113198;28;20023;-83